Bermuda Spirit — C6XT2 — position and weather

sailwx.info

Track history (hours):
 
Tides and Currents Weather Stations Pressure Air Temp Water Temp Dewpoint Dewpoint Depression Visibility Wind Speed Wind Dir Waves Ship Positions

Bermuda Spirit

Last reported at 2015-Apr-28 04:32 UTC. Time now 2015-Apr-28 05:22 UTC.
Position N 37°57' E 023°23'.

Length 274 m; draft 10.3 m.

Type: Tanker. MMSI: 311020900.

Date/timePositionNaut miles runAvg speedWind from/ knotsBaromVisibWave heightAir tempDewpointWater temp
2015-Apr-28 04:32N 37°57' E 023°23'0 0.0
2015-Apr-28 03:32N 37°57' E 023°23'0 0.0
2015-Apr-28 02:32N 37°57' E 023°23'0 0.0
2015-Apr-28 01:29N 37°57' E 023°23'0 0.0
2015-Apr-28 00:32N 37°57' E 023°23'0 0.0
2015-Apr-27 23:32N 37°57' E 023°23'0 0.0
2015-Apr-27 22:29N 37°57' E 023°23'0 0.0
2015-Apr-27 21:32N 37°57' E 023°23'0 0.0
2015-Apr-27 20:32N 37°57' E 023°23'0 0.0
2015-Apr-27 19:32N 37°57' E 023°23'0 0.0
2015-Apr-27 18:32N 37°57' E 023°23'0 0.0
2015-Apr-27 17:32N 37°57' E 023°23'0 0.2
2015-Apr-27 16:33N 37°57' E 023°23'1010.0
2015-Apr-27 15:33N 37°54' E 023°11'4 4.1
2015-Apr-27 14:32N 37°55' E 023°05'0 0.0
2015-Apr-27 13:32N 37°55' E 023°05'0 0.0
2015-Apr-27 01:17N 37°55' E 023°05'0 0.0
2015-Apr-26 16:30N 37°55' E 023°05'1 0.6
2015-Apr-26 14:25N 37°54' E 023°04'0 0.0
2015-Apr-26 13:31N 37°54' E 023°04'0 0.0
2015-Apr-26 12:31N 37°54' E 023°04'0 0.0
2015-Apr-26 11:31N 37°54' E 023°04'0 0.0
2015-Apr-26 10:28N 37°54' E 023°04'0 0.2
2015-Apr-26 09:28N 37°54' E 023°04'0 0.1
2015-Apr-26 08:28N 37°54' E 023°04'0 0.0
2015-Apr-26 05:19N 37°54' E 023°04'0 0.0
2015-Apr-26 04:22N 37°54' E 023°04'0 0.0
2015-Apr-26 03:22N 37°54' E 023°04'0 0.0
2015-Apr-26 02:31N 37°54' E 023°04'0 0.0
2015-Apr-26 01:28N 37°54' E 023°04'0 0.1
2015-Apr-26 00:22N 37°54' E 023°04'0 0.1
2015-Apr-25 23:31N 37°54' E 023°04'0 0.1
2015-Apr-25 22:28N 37°54' E 023°04'0 0.1
2015-Apr-25 21:31N 37°54' E 023°04'0 0.0
2015-Apr-25 20:28N 37°54' E 023°04'0 0.0
2015-Apr-25 19:28N 37°54' E 023°04'0 0.0
2015-Apr-25 18:22N 37°54' E 023°04'0 0.0
2015-Apr-25 17:28N 37°54' E 023°04'0 0.0
2015-Apr-25 16:31N 37°54' E 023°04'0 0.0
2015-Apr-25 15:29N 37°54' E 023°04'0 0.0
2015-Apr-25 13:31N 37°54' E 023°04'0 0.0
2015-Apr-25 12:25N 37°54' E 023°04'0 0.0
2015-Apr-25 11:31N 37°54' E 023°04'0 0.0
2015-Apr-25 10:31N 37°54' E 023°04'0 0.1
2015-Apr-25 09:23N 37°54' E 023°04'0 0.1
2015-Apr-25 08:28N 37°54' E 023°04'0 0.2
2015-Apr-25 07:33N 37°54' E 023°04'2 1.5
2015-Apr-25 06:27N 37°53' E 023°06'6 6.3
2015-Apr-25 05:33N 37°53' E 023°13'1312.8
2015-Apr-25 04:33N 37°50' E 023°29'10 9.7
2015-Apr-25 03:33N 37°47' E 023°41'1010.3
2015-Apr-25 02:33N 37°39' E 023°48'10 9.4
2015-Apr-25 01:28N 37°35' E 024°01'19 9.8
2015-Apr-24 23:30N 37°47' E 024°20'1210.8
2015-Apr-24 22:22N 37°54' E 024°33'262 6.5
2015-Apr-23 06:19N 40°53' E 028°40'1012.4
2015-Apr-23 05:31N 40°55' E 028°53'7 7.2
2015-Apr-23 04:32N 41°00' E 028°60'22 9.7
2015-Apr-23 02:18N 41°21' E 029°04'15 0.8
2015-Apr-22 08:17N 41°27' E 029°22'40213.1
2015-Apr-21 01:31N 44°30' E 037°32'1111.1
2015-Apr-21 00:33N 44°35' E 037°46'8 7.8
2015-Apr-20 23:33N 44°42' E 037°50'1 0.5
2015-Apr-20 22:33N 44°42' E 037°50'0 0.0
2015-Apr-20 21:33N 44°42' E 037°50'0 0.0
2015-Apr-20 20:33N 44°42' E 037°50'0 0.0
2015-Apr-20 19:33N 44°42' E 037°50'0 0.0
2015-Apr-20 18:33N 44°42' E 037°50'0 0.0
2015-Apr-20 17:33N 44°42' E 037°50'0 0.0
2015-Apr-20 16:33N 44°42' E 037°50'0 0.0
2015-Apr-20 15:33N 44°42' E 037°50'0 0.0
2015-Apr-20 14:33N 44°42' E 037°50'0 0.0
2015-Apr-20 13:33N 44°42' E 037°50'0 0.0
2015-Apr-20 12:33N 44°42' E 037°50'0 0.0
2015-Apr-20 11:33N 44°42' E 037°50'0 0.0
2015-Apr-20 10:33N 44°42' E 037°50'0 0.0
2015-Apr-20 08:33N 44°42' E 037°50'0 0.0
2015-Apr-20 07:33N 44°42' E 037°50'0 0.0
2015-Apr-20 06:30N 44°42' E 037°50'0 0.0
2015-Apr-20 05:33N 44°42' E 037°50'0 0.0
2015-Apr-20 04:30N 44°42' E 037°50'0 0.0
2015-Apr-20 03:33N 44°42' E 037°50'0 0.0
2015-Apr-20 02:33N 44°42' E 037°50'0 0.0
2015-Apr-20 01:33N 44°42' E 037°50'0 0.0
2015-Apr-20 00:33N 44°42' E 037°50'0 0.0
2015-Apr-19 23:33N 44°42' E 037°50'0 0.0
2015-Apr-19 22:30N 44°42' E 037°50'0 0.0
2015-Apr-19 21:33N 44°42' E 037°50'0 0.0
2015-Apr-19 20:33N 44°42' E 037°50'1 0.9
2015-Apr-19 19:33N 44°41' E 037°50'5 5.2
2015-Apr-19 18:33N 44°36' E 037°53'1 1.2
2015-Apr-19 17:32N 44°35' E 037°53'0 0.1
2015-Apr-19 16:32N 44°35' E 037°53'0 0.1
2015-Apr-19 15:32N 44°35' E 037°53'0 0.0
2015-Apr-19 14:32N 44°35' E 037°53'0 0.0
2015-Apr-19 13:32N 44°35' E 037°53'0 0.3
2015-Apr-19 12:32N 44°35' E 037°53'0 0.1
2015-Apr-19 11:32N 44°35' E 037°53'0 0.1
2015-Apr-19 10:32N 44°35' E 037°53'0 0.0
2015-Apr-19 09:32N 44°35' E 037°53'0 0.0
2015-Apr-19 08:32N 44°35' E 037°53'0 0.1
2015-Apr-19 07:32N 44°35' E 037°53'0 0.0
2015-Apr-19 06:32N 44°35' E 037°53'0 0.0
2015-Apr-19 05:32N 44°35' E 037°53'0 0.0
2015-Apr-19 04:32N 44°35' E 037°53'0 0.0
2015-Apr-19 03:32N 44°35' E 037°53'0 0.0
2015-Apr-19 02:29N 44°35' E 037°53'0 0.0
2015-Apr-19 01:32N 44°35' E 037°53'0 0.1
2015-Apr-19 00:29N 44°35' E 037°53'0 0.1
2015-Apr-18 23:32N 44°35' E 037°53'0 0.1
2015-Apr-18 22:32N 44°35' E 037°53'0 0.0
2015-Apr-18 21:32N 44°35' E 037°53'0 0.1
2015-Apr-18 20:26N 44°35' E 037°53'0 0.0
2015-Apr-18 19:32N 44°35' E 037°53'0 0.0
2015-Apr-18 18:32N 44°35' E 037°53'0 0.0
2015-Apr-18 17:32N 44°35' E 037°53'0 0.1
2015-Apr-18 16:32N 44°35' E 037°53'0 0.0
2015-Apr-18 15:32N 44°35' E 037°53'0 0.1
2015-Apr-18 14:32N 44°35' E 037°53'0 0.0
2015-Apr-18 13:32N 44°35' E 037°53'0 0.0
2015-Apr-18 12:32N 44°35' E 037°53'0 0.1
2015-Apr-18 11:32N 44°35' E 037°53'0 0.0
2015-Apr-18 10:32N 44°35' E 037°53'0 0.0
2015-Apr-18 09:32N 44°35' E 037°53'0 0.0
2015-Apr-18 08:26N 44°35' E 037°53'0 0.0
2015-Apr-18 07:32N 44°35' E 037°53'0 0.0
2015-Apr-18 06:32N 44°35' E 037°53'0 0.0
2015-Apr-18 05:32N 44°35' E 037°53'0 0.0
2015-Apr-18 04:32N 44°35' E 037°53'  
Track history (hours):
 
Tides and Currents Weather Stations Pressure Air Temp Water Temp Dewpoint Dewpoint Depression Visibility Wind Speed Wind Dir Waves Ship Positions

Bermuda Spirit

Last reported at 2015-Apr-28 04:32 UTC. Time now 2015-Apr-28 05:22 UTC.
Position N 37°57' E 023°23'.

Length 274 m; draft 10.3 m.

Type: Tanker. MMSI: 311020900.

Date/timePositionNaut miles runAvg speedWind from/ knotsBaromVisibWave heightAir tempDewpointWater temp
2015-Apr-28 04:32N 37°57' E 023°23'0 0.0
2015-Apr-28 03:32N 37°57' E 023°23'0 0.0
2015-Apr-28 02:32N 37°57' E 023°23'0 0.0
2015-Apr-28 01:29N 37°57' E 023°23'0 0.0
2015-Apr-28 00:32N 37°57' E 023°23'0 0.0
2015-Apr-27 23:32N 37°57' E 023°23'0 0.0
2015-Apr-27 22:29N 37°57' E 023°23'0 0.0
2015-Apr-27 21:32N 37°57' E 023°23'0 0.0
2015-Apr-27 20:32N 37°57' E 023°23'0 0.0
2015-Apr-27 19:32N 37°57' E 023°23'0 0.0
2015-Apr-27 18:32N 37°57' E 023°23'0 0.0
2015-Apr-27 17:32N 37°57' E 023°23'0 0.2
2015-Apr-27 16:33N 37°57' E 023°23'1010.0
2015-Apr-27 15:33N 37°54' E 023°11'4 4.1
2015-Apr-27 14:32N 37°55' E 023°05'0 0.0
2015-Apr-27 13:32N 37°55' E 023°05'0 0.0
2015-Apr-27 01:17N 37°55' E 023°05'0 0.0
2015-Apr-26 16:30N 37°55' E 023°05'1 0.6
2015-Apr-26 14:25N 37°54' E 023°04'0 0.0
2015-Apr-26 13:31N 37°54' E 023°04'0 0.0
2015-Apr-26 12:31N 37°54' E 023°04'0 0.0
2015-Apr-26 11:31N 37°54' E 023°04'0 0.0
2015-Apr-26 10:28N 37°54' E 023°04'0 0.2
2015-Apr-26 09:28N 37°54' E 023°04'0 0.1
2015-Apr-26 08:28N 37°54' E 023°04'0 0.0
2015-Apr-26 05:19N 37°54' E 023°04'0 0.0
2015-Apr-26 04:22N 37°54' E 023°04'0 0.0
2015-Apr-26 03:22N 37°54' E 023°04'0 0.0
2015-Apr-26 02:31N 37°54' E 023°04'0 0.0
2015-Apr-26 01:28N 37°54' E 023°04'0 0.1
2015-Apr-26 00:22N 37°54' E 023°04'0 0.1
2015-Apr-25 23:31N 37°54' E 023°04'0 0.1
2015-Apr-25 22:28N 37°54' E 023°04'0 0.1
2015-Apr-25 21:31N 37°54' E 023°04'0 0.0
2015-Apr-25 20:28N 37°54' E 023°04'0 0.0
2015-Apr-25 19:28N 37°54' E 023°04'0 0.0
2015-Apr-25 18:22N 37°54' E 023°04'0 0.0
2015-Apr-25 17:28N 37°54' E 023°04'0 0.0
2015-Apr-25 16:31N 37°54' E 023°04'0 0.0
2015-Apr-25 15:29N 37°54' E 023°04'0 0.0
2015-Apr-25 13:31N 37°54' E 023°04'0 0.0
2015-Apr-25 12:25N 37°54' E 023°04'0 0.0
2015-Apr-25 11:31N 37°54' E 023°04'0 0.0
2015-Apr-25 10:31N 37°54' E 023°04'0 0.1
2015-Apr-25 09:23N 37°54' E 023°04'0 0.1
2015-Apr-25 08:28N 37°54' E 023°04'0 0.2
2015-Apr-25 07:33N 37°54' E 023°04'2 1.5
2015-Apr-25 06:27N 37°53' E 023°06'6 6.3
2015-Apr-25 05:33N 37°53' E 023°13'1312.8
2015-Apr-25 04:33N 37°50' E 023°29'10 9.7
2015-Apr-25 03:33N 37°47' E 023°41'1010.3
2015-Apr-25 02:33N 37°39' E 023°48'10 9.4
2015-Apr-25 01:28N 37°35' E 024°01'19 9.8
2015-Apr-24 23:30N 37°47' E 024°20'1210.8
2015-Apr-24 22:22N 37°54' E 024°33'262 6.5
2015-Apr-23 06:19N 40°53' E 028°40'1012.4
2015-Apr-23 05:31N 40°55' E 028°53'7 7.2
2015-Apr-23 04:32N 41°00' E 028°60'22 9.7
2015-Apr-23 02:18N 41°21' E 029°04'15 0.8
2015-Apr-22 08:17N 41°27' E 029°22'40213.1
2015-Apr-21 01:31N 44°30' E 037°32'1111.1
2015-Apr-21 00:33N 44°35' E 037°46'8 7.8
2015-Apr-20 23:33N 44°42' E 037°50'1 0.5
2015-Apr-20 22:33N 44°42' E 037°50'0 0.0
2015-Apr-20 21:33N 44°42' E 037°50'0 0.0
2015-Apr-20 20:33N 44°42' E 037°50'0 0.0
2015-Apr-20 19:33N 44°42' E 037°50'0 0.0
2015-Apr-20 18:33N 44°42' E 037°50'0 0.0
2015-Apr-20 17:33N 44°42' E 037°50'0 0.0
2015-Apr-20 16:33N 44°42' E 037°50'0 0.0
2015-Apr-20 15:33N 44°42' E 037°50'0 0.0
2015-Apr-20 14:33N 44°42' E 037°50'0 0.0
2015-Apr-20 13:33N 44°42' E 037°50'0 0.0
2015-Apr-20 12:33N 44°42' E 037°50'0 0.0
2015-Apr-20 11:33N 44°42' E 037°50'0 0.0
2015-Apr-20 10:33N 44°42' E 037°50'0 0.0
2015-Apr-20 08:33N 44°42' E 037°50'0 0.0
2015-Apr-20 07:33N 44°42' E 037°50'0 0.0
2015-Apr-20 06:30N 44°42' E 037°50'0 0.0
2015-Apr-20 05:33N 44°42' E 037°50'0 0.0
2015-Apr-20 04:30N 44°42' E 037°50'0 0.0
2015-Apr-20 03:33N 44°42' E 037°50'0 0.0
2015-Apr-20 02:33N 44°42' E 037°50'0 0.0
2015-Apr-20 01:33N 44°42' E 037°50'0 0.0
2015-Apr-20 00:33N 44°42' E 037°50'0 0.0
2015-Apr-19 23:33N 44°42' E 037°50'0 0.0
2015-Apr-19 22:30N 44°42' E 037°50'0 0.0
2015-Apr-19 21:33N 44°42' E 037°50'0 0.0
2015-Apr-19 20:33N 44°42' E 037°50'1 0.9
2015-Apr-19 19:33N 44°41' E 037°50'5 5.2
2015-Apr-19 18:33N 44°36' E 037°53'1 1.2
2015-Apr-19 17:32N 44°35' E 037°53'0 0.1
2015-Apr-19 16:32N 44°35' E 037°53'0 0.1
2015-Apr-19 15:32N 44°35' E 037°53'0 0.0
2015-Apr-19 14:32N 44°35' E 037°53'0 0.0
2015-Apr-19 13:32N 44°35' E 037°53'0 0.3
2015-Apr-19 12:32N 44°35' E 037°53'0 0.1
2015-Apr-19 11:32N 44°35' E 037°53'0 0.1
2015-Apr-19 10:32N 44°35' E 037°53'0 0.0
2015-Apr-19 09:32N 44°35' E 037°53'0 0.0
2015-Apr-19 08:32N 44°35' E 037°53'0 0.1
2015-Apr-19 07:32N 44°35' E 037°53'0 0.0
2015-Apr-19 06:32N 44°35' E 037°53'0 0.0
2015-Apr-19 05:32N 44°35' E 037°53'0 0.0
2015-Apr-19 04:32N 44°35' E 037°53'0 0.0
2015-Apr-19 03:32N 44°35' E 037°53'0 0.0
2015-Apr-19 02:29N 44°35' E 037°53'0 0.0
2015-Apr-19 01:32N 44°35' E 037°53'0 0.1
2015-Apr-19 00:29N 44°35' E 037°53'0 0.1
2015-Apr-18 23:32N 44°35' E 037°53'0 0.1
2015-Apr-18 22:32N 44°35' E 037°53'0 0.0
2015-Apr-18 21:32N 44°35' E 037°53'0 0.1
2015-Apr-18 20:26N 44°35' E 037°53'0 0.0
2015-Apr-18 19:32N 44°35' E 037°53'0 0.0
2015-Apr-18 18:32N 44°35' E 037°53'0 0.0
2015-Apr-18 17:32N 44°35' E 037°53'0 0.1
2015-Apr-18 16:32N 44°35' E 037°53'0 0.0
2015-Apr-18 15:32N 44°35' E 037°53'0 0.1
2015-Apr-18 14:32N 44°35' E 037°53'0 0.0
2015-Apr-18 13:32N 44°35' E 037°53'0 0.0
2015-Apr-18 12:32N 44°35' E 037°53'0 0.1
2015-Apr-18 11:32N 44°35' E 037°53'0 0.0
2015-Apr-18 10:32N 44°35' E 037°53'0 0.0
2015-Apr-18 09:32N 44°35' E 037°53'0 0.0
2015-Apr-18 08:26N 44°35' E 037°53'0 0.0
2015-Apr-18 07:32N 44°35' E 037°53'0 0.0
2015-Apr-18 06:32N 44°35' E 037°53'0 0.0
2015-Apr-18 05:32N 44°35' E 037°53'0 0.0
2015-Apr-18 04:32N 44°35' E 037°53'  

Dump ship's entire track history